Time;durP1;ratioP1;P1;durP2;ratioP2;P2;SDS_P1;SDS_P2;PMS_P1;PMS_P2;Temp;Humidity;BMP_temperature;BMP_pressure;BME280_temperature;BME280_humidity;BME280_pressure;Samples;Min_cycle;Max_cycle;Signal;HPM_P1;HPM_P2
2023/08/12 00:00:42;;;;;;;3.10;1.87;;;;;;;24.96;50.34;99845.13;5035549;28;20201;-68
2023/08/12 00:03:09;;;;;;;2.10;1.90;;;;;;;24.98;50.67;99848.38;5034576;28;20185;-69
2023/08/12 00:05:36;;;;;;;1.53;1.53;;;;;;;25.13;50.56;99860.25;5035387;28;20607;-67
2023/08/12 00:08:03;;;;;;;1.90;1.80;;;;;;;25.07;50.63;99850.50;5035038;28;20217;-67
2023/08/12 00:10:30;;;;;;;2.03;1.93;;;;;;;25.06;50.85;99849.69;5035117;28;20263;-67
2023/08/12 00:12:57;;;;;;;2.27;2.17;;;;;;;24.89;50.14;99855.50;5034707;28;20193;-68
2023/08/12 00:15:25;;;;;;;2.20;2.10;;;;;;;24.73;50.78;99845.81;5035372;28;20197;-68
2023/08/12 00:17:53;;;;;;;3.60;1.90;;;;;;;24.56;52.89;99845.31;5035031;28;20205;-68
2023/08/12 00:20:19;;;;;;;1.87;1.87;;;;;;;24.55;51.65;99849.09;5034900;28;20236;-68
2023/08/12 00:22:47;;;;;;;2.50;2.40;;;;;;;24.58;52.11;99847.72;5034089;28;20252;-68
2023/08/12 00:25:14;;;;;;;1.87;1.77;;;;;;;24.35;52.03;99841.03;5034712;28;20286;-68
2023/08/12 00:27:40;;;;;;;3.43;2.13;;;;;;;24.32;52.10;99843.50;5034583;28;20224;-69
2023/08/12 00:30:08;;;;;;;3.03;1.90;;;;;;;24.22;52.96;99838.13;5034879;28;20254;-73
2023/08/12 00:32:36;;;;;;;2.50;2.20;;;;;;;24.07;53.42;99838.97;5033666;28;20193;-70
2023/08/12 00:35:04;;;;;;;4.20;1.90;;;;;;;24.17;53.67;99844.38;5034570;28;20201;-67
2023/08/12 00:37:30;;;;;;;2.37;2.27;;;;;;;24.12;53.53;99838.13;5035003;28;20200;-68
2023/08/12 00:39:57;;;;;;;4.60;2.17;;;;;;;24.10;53.30;99851.97;5034738;28;20258;-67
2023/08/12 00:42:24;;;;;;;2.20;2.10;;;;;;;24.16;53.41;99848.16;5034086;28;20253;-67
2023/08/12 00:44:50;;;;;;;3.80;2.40;;;;;;;23.99;53.01;99825.97;5034234;28;20193;-68
2023/08/12 00:47:17;;;;;;;2.10;1.90;;;;;;;23.88;53.66;99842.47;5034447;28;20656;-68
2023/08/12 00:49:45;;;;;;;3.77;2.07;;;;;;;23.70;54.34;99830.31;5034416;28;20222;-67
2023/08/12 00:52:13;;;;;;;2.83;2.20;;;;;;;23.52;55.00;99839.00;5033796;28;20234;-68
2023/08/12 00:54:39;;;;;;;1.97;1.63;;;;;;;23.48;55.13;99840.63;5034432;28;20618;-67
2023/08/12 00:57:07;;;;;;;3.43;2.17;;;;;;;23.45;55.77;99843.06;5034365;28;20195;-68
2023/08/12 00:59:37;;;;;;;3.60;1.97;;;;;;;23.51;55.17;99842.81;5034216;28;20203;-67
2023/08/12 01:02:05;;;;;;;2.40;2.20;;;;;;;23.44;55.59;99831.41;5033965;28;20224;-68
2023/08/12 01:04:32;;;;;;;2.27;2.00;;;;;;;23.52;55.64;99825.44;5033862;28;20265;-68
2023/08/12 01:07:00;;;;;;;2.60;1.90;;;;;;;23.51;55.96;99826.53;5034483;28;20195;-68
2023/08/12 01:09:27;;;;;;;2.30;2.20;;;;;;;23.43;55.27;99828.97;5034267;28;20232;-70
2023/08/12 01:12:04;;;;;;;2.60;2.07;;;;;;;23.38;55.44;99827.06;5033779;28;20250;-68
2023/08/12 01:14:41;;;;;;;1.93;1.83;;;;;;;23.40;55.54;99835.72;5034272;28;20187;-68
2023/08/12 01:17:10;;;;;;;2.90;2.30;;;;;;;23.51;55.46;99831.13;5034446;28;20190;-72
2023/08/12 01:19:39;;;;;;;2.33;1.60;;;;;;;23.57;55.49;99836.28;5034276;28;20258;-67
2023/08/12 01:22:09;;;;;;;1.97;1.87;;;;;;;23.56;56.41;99818.38;5033194;28;20192;-68
2023/08/12 01:24:38;;;;;;;2.47;2.27;;;;;;;23.71;56.77;99826.50;5033881;28;20594;-67
2023/08/12 01:27:07;;;;;;;2.00;1.90;;;;;;;23.85;56.11;99827.56;5034310;28;20189;-67
2023/08/12 01:29:35;;;;;;;2.60;2.00;;;;;;;23.97;55.23;99833.53;5033513;28;20700;-66
2023/08/12 01:32:10;;;;;;;3.00;1.90;;;;;;;24.00;55.36;99830.28;5033028;28;20259;-67
2023/08/12 01:34:43;;;;;;;4.23;1.97;;;;;;;24.16;54.66;99833.78;5034365;28;20275;-67
2023/08/12 01:37:15;;;;;;;2.30;2.07;;;;;;;24.17;53.78;99836.22;5033236;28;20192;-71
2023/08/12 01:39:46;;;;;;;2.17;2.07;;;;;;;24.27;54.30;99836.19;5033521;28;20201;-69
2023/08/12 01:42:13;;;;;;;3.20;2.00;;;;;;;24.36;53.81;99839.97;5033229;28;20188;-69
2023/08/12 01:44:40;;;;;;;2.30;2.10;;;;;;;24.51;53.53;99836.38;5033738;28;20197;-69
2023/08/12 01:47:07;;;;;;;1.80;1.77;;;;;;;24.58;53.10;99832.25;5033766;28;20189;-68
2023/08/12 01:49:34;;;;;;;2.57;2.00;;;;;;;24.47;52.09;99846.97;5033574;28;20229;-68
2023/08/12 01:52:00;;;;;;;2.40;2.20;;;;;;;24.24;52.42;99838.63;5033026;28;20668;-68
2023/08/12 01:54:33;;;;;;;2.80;2.30;;;;;;;23.68;54.75;99835.19;5033335;28;20196;-68
2023/08/12 01:57:01;;;;;;;1.90;1.80;;;;;;;23.29;55.44;99828.72;5033861;28;20272;-68
2023/08/12 01:59:28;;;;;;;2.43;2.33;;;;;;;23.09;56.61;99827.81;5033410;28;20204;-68
2023/08/12 02:01:54;;;;;;;2.00;1.90;;;;;;;23.26;57.40;99834.66;5032033;28;20253;-69
2023/08/12 02:04:21;;;;;;;2.20;2.10;;;;;;;23.35;56.81;99830.31;5033050;28;20199;-68
2023/08/12 02:06:49;;;;;;;2.50;2.40;;;;;;;23.49;56.17;99834.09;5033061;28;20261;-68
2023/08/12 02:09:16;;;;;;;2.10;2.00;;;;;;;23.63;55.86;99832.50;5033117;28;20309;-68
2023/08/12 02:11:43;;;;;;;2.47;2.37;;;;;;;23.48;55.71;99835.19;5032536;28;20199;-67
2023/08/12 02:14:11;;;;;;;2.03;1.93;;;;;;;23.48;55.62;99837.91;5032762;28;20253;-68
2023/08/12 02:16:38;;;;;;;2.13;2.03;;;;;;;23.60;55.33;99830.31;5032209;28;20201;-69
2023/08/12 02:19:05;;;;;;;2.83;2.17;;;;;;;23.58;54.47;99827.06;5032886;28;20630;-69
2023/08/12 02:21:31;;;;;;;2.30;2.10;;;;;;;23.49;54.84;99823.25;5032341;28;20204;-69
2023/08/12 02:23:58;;;;;;;2.67;1.80;;;;;;;23.44;54.51;99831.41;5032913;28;20203;-68
2023/08/12 02:26:25;;;;;;;2.23;2.10;;;;;;;23.13;55.53;99837.03;5032463;28;20223;-67
2023/08/12 02:28:51;;;;;;;3.80;2.17;;;;;;;22.81;56.31;99831.84;5032834;28;20227;-68
2023/08/12 02:31:20;;;;;;;2.27;2.17;;;;;;;22.43;57.76;99840.34;5032468;28;20199;-68
2023/08/12 02:33:49;;;;;;;2.40;2.20;;;;;;;22.52;57.38;99835.25;5033130;28;20191;-67
2023/08/12 02:36:16;;;;;;;2.50;2.30;;;;;;;22.38;57.96;99832.19;5031066;28;20204;-68
2023/08/12 02:38:50;;;;;;;2.20;1.97;;;;;;;22.00;59.32;99840.66;5109973;27;20559;-69
2023/08/12 02:41:17;;;;;;;2.30;2.20;;;;;;;21.98;59.33;99845.53;5109837;28;20254;-68
2023/08/12 02:43:43;;;;;;;2.33;2.23;;;;;;;21.93;59.67;99845.47;5109871;28;20200;-69
2023/08/12 02:46:10;;;;;;;2.33;2.23;;;;;;;21.71;60.49;99839.38;5109251;28;20204;-68
2023/08/12 02:48:37;;;;;;;2.07;1.97;;;;;;;21.63;60.81;99849.81;5109497;28;20692;-68
2023/08/12 02:51:04;;;;;;;2.37;2.27;;;;;;;21.53;61.34;99855.16;5109890;28;20191;-68
2023/08/12 02:53:30;;;;;;;2.20;2.10;;;;;;;21.57;61.47;99850.84;5108104;28;20605;-68
2023/08/12 02:55:58;;;;;;;2.60;2.20;;;;;;;21.50;61.73;99851.06;5109456;28;20260;-68
2023/08/12 02:58:25;;;;;;;2.10;2.00;;;;;;;21.46;61.81;99849.13;5108972;28;20222;-68
2023/08/12 03:00:52;;;;;;;2.30;2.20;;;;;;;21.31;62.60;99851.72;5109253;28;20359;-68
2023/08/12 03:03:18;;;;;;;2.47;2.27;;;;;;;21.28;62.45;99853.06;5108579;28;20240;-75
2023/08/12 03:05:47;;;;;;;2.60;2.40;;;;;;;21.24;62.67;99854.66;5108797;28;20194;-68
2023/08/12 03:08:14;;;;;;;2.80;2.23;;;;;;;21.29;62.55;99853.84;5108603;28;20630;-71
2023/08/12 03:10:42;;;;;;;3.67;2.33;;;;;;;21.33;62.49;99855.81;5108976;28;20195;-69
2023/08/12 03:13:10;;;;;;;2.60;2.40;;;;;;;21.31;62.78;99857.13;5108954;28;20187;-69
2023/08/12 03:15:39;;;;;;;2.50;2.30;;;;;;;21.50;63.38;99859.19;5107832;28;20719;-67
2023/08/12 03:18:06;;;;;;;2.53;2.30;;;;;;;21.63;61.67;99860.63;5109418;28;20280;-67
2023/08/12 03:20:33;;;;;;;2.20;1.97;;;;;;;21.83;62.47;99856.22;5108786;28;20244;-68
2023/08/12 03:23:00;;;;;;;2.80;2.30;;;;;;;21.92;60.77;99860.06;5108360;28;20563;-68
2023/08/12 03:25:26;;;;;;;2.53;2.33;;;;;;;22.13;61.62;99859.13;5107935;28;20191;-68
2023/08/12 03:27:53;;;;;;;2.37;2.20;;;;;;;22.38;60.51;99855.75;5108023;28;20256;-69
2023/08/12 03:30:21;;;;;;;2.40;2.30;;;;;;;22.48;59.66;99853.94;5108112;28;20191;-68
2023/08/12 03:32:48;;;;;;;3.23;2.50;;;;;;;22.53;58.40;99862.06;5108973;28;20190;-69
2023/08/12 03:35:15;;;;;;;2.80;2.60;;;;;;;22.56;58.87;99853.44;5107219;28;20198;-69
2023/08/12 03:37:41;;;;;;;2.80;2.70;;;;;;;22.60;57.96;99854.53;5107690;28;20284;-69
2023/08/12 03:40:09;;;;;;;3.70;2.40;;;;;;;22.52;58.67;99857.75;5108761;28;20195;-69
2023/08/12 03:42:36;;;;;;;2.17;1.97;;;;;;;22.64;58.85;99847.50;5107198;28;20192;-69
2023/08/12 03:45:03;;;;;;;3.83;2.10;;;;;;;22.92;57.76;99859.78;5108563;28;20193;-67
2023/08/12 03:47:31;;;;;;;2.43;2.10;;;;;;;23.02;56.79;99863.31;5108408;28;20204;-76
2023/08/12 03:49:58;;;;;;;2.47;2.27;;;;;;;22.95;57.52;99870.88;5075532;28;20662;-68
2023/08/12 03:52:24;;;;;;;4.57;2.50;;;;;;;23.01;56.17;99869.81;5077177;28;20257;-69
2023/08/12 03:54:52;;;;;;;2.77;2.50;;;;;;;23.16;55.94;99863.63;5094063;28;20191;-69
2023/08/12 03:57:19;;;;;;;2.37;2.17;;;;;;;23.43;55.37;99877.75;5094597;28;20228;-68
2023/08/12 03:59:46;;;;;;;2.40;2.30;;;;;;;23.27;55.35;99874.22;5093990;28;20200;-68
2023/08/12 04:02:12;;;;;;;2.60;2.03;;;;;;;23.42;55.86;99882.41;5093577;28;20250;-68
2023/08/12 04:04:42;;;;;;;2.63;2.43;;;;;;;23.42;55.37;99882.41;5094254;28;20251;-68
2023/08/12 04:07:09;;;;;;;3.40;2.13;;;;;;;23.66;55.72;99891.63;5094490;28;20228;-67
2023/08/12 04:09:35;;;;;;;4.10;2.00;;;;;;;23.63;55.15;99884.03;5094304;28;20247;-68
2023/08/12 04:12:03;;;;;;;3.10;2.70;;;;;;;23.80;54.16;99879.13;5094042;28;20194;-70
2023/08/12 04:14:30;;;;;;;2.33;2.20;;;;;;;24.04;54.09;99880.22;5093202;28;20239;-68
2023/08/12 04:16:56;;;;;;;4.10;2.30;;;;;;;24.06;52.73;99897.03;5093438;28;20281;-69
2023/08/12 04:19:23;;;;;;;2.40;2.13;;;;;;;23.64;53.63;99880.22;5093665;28;20350;-68
2023/08/12 04:21:51;;;;;;;5.03;2.30;;;;;;;23.42;54.69;99889.72;5094312;28;20252;-68
2023/08/12 04:24:18;;;;;;;2.77;2.60;;;;;;;23.32;55.30;99893.22;5093095;28;20193;-69
2023/08/12 04:26:44;;;;;;;2.77;2.57;;;;;;;23.27;55.83;99890.50;5093551;28;20198;-68
2023/08/12 04:29:11;;;;;;;2.70;2.00;;;;;;;23.45;55.34;99892.72;5093927;28;20262;-69
2023/08/12 04:31:38;;;;;;;5.43;2.53;;;;;;;23.57;54.28;99884.31;5093359;28;20607;-68
2023/08/12 04:34:04;;;;;;;3.80;2.50;;;;;;;23.69;54.99;99895.69;5092457;28;20191;-68
2023/08/12 04:36:31;;;;;;;5.70;2.23;;;;;;;23.89;54.33;99899.19;5093382;28;20259;-69
2023/08/12 04:38:59;;;;;;;2.47;2.27;;;;;;;24.01;54.21;99901.69;5093763;28;20218;-67
2023/08/12 04:41:26;;;;;;;2.30;2.17;;;;;;;24.16;53.53;99894.31;5093197;28;20658;-68
2023/08/12 04:43:53;;;;;;;6.23;2.73;;;;;;;24.09;54.10;99899.22;5092220;28;20695;-69
2023/08/12 04:46:19;;;;;;;4.60;2.33;;;;;;;23.56;54.91;99880.75;5093617;28;20199;-71
2023/08/12 04:48:46;;;;;;;3.47;2.13;;;;;;;23.59;55.58;99901.94;5093284;28;20193;-68
2023/08/12 04:51:14;;;;;;;2.90;2.70;;;;;;;23.57;55.04;99908.72;5093650;28;20233;-69
2023/08/12 04:53:41;;;;;;;3.70;2.33;;;;;;;23.45;55.59;99908.97;5092153;28;20705;-69
2023/08/12 04:56:09;;;;;;;2.50;2.40;;;;;;;23.14;56.72;99907.25;5092645;28;20254;-74
2023/08/12 04:58:35;;;;;;;3.03;2.17;;;;;;;23.32;56.97;99904.06;5093032;28;20224;-67
2023/08/12 05:01:02;;;;;;;5.80;2.60;;;;;;;23.32;57.03;99893.22;5091351;28;20263;-68
2023/08/12 05:03:29;;;;;;;2.60;2.40;;;;;;;23.19;57.60;99904.53;5092879;28;20677;-67
2023/08/12 05:05:56;;;;;;;2.43;2.33;;;;;;;23.19;58.00;99901.84;5092755;28;20656;-68
2023/08/12 05:08:22;;;;;;;2.53;2.20;;;;;;;23.01;58.39;99905.06;5092808;28;20277;-69
2023/08/12 05:10:49;;;;;;;4.50;2.70;;;;;;;23.10;58.36;99906.16;5092501;28;20256;-70
2023/08/12 05:13:18;;;;;;;2.60;2.40;;;;;;;23.08;58.95;99908.31;5091488;28;20813;-68
2023/08/12 05:15:47;;;;;;;2.93;2.63;;;;;;;23.21;58.50;99907.03;5092924;28;20200;-68
2023/08/12 05:18:13;;;;;;;4.90;2.80;;;;;;;23.06;59.16;99899.66;5092201;28;20681;-68
2023/08/12 05:20:40;;;;;;;2.67;2.57;;;;;;;23.14;58.78;99899.13;5092684;28;20247;-68
2023/08/12 05:23:07;;;;;;;5.63;3.00;;;;;;;23.25;58.18;99899.97;5091444;28;20637;-72
2023/08/12 05:25:34;;;;;;;3.07;2.73;;;;;;;23.29;58.52;99904.63;5092493;28;20196;-68
2023/08/12 05:28:01;;;;;;;5.60;3.20;;;;;;;23.27;58.77;99906.75;5092060;28;20194;-70
2023/08/12 05:30:29;;;;;;;2.70;2.60;;;;;;;23.46;58.08;99917.91;5091934;28;20243;-69
2023/08/12 05:32:55;;;;;;;4.03;2.97;;;;;;;23.56;57.06;99916.03;5090706;28;20591;-68
2023/08/12 05:35:22;;;;;;;3.43;2.70;;;;;;;23.50;57.61;99917.13;5091528;28;20194;-71
2023/08/12 05:37:48;;;;;;;4.13;2.70;;;;;;;23.46;57.22;99910.59;5091964;28;20240;-70
2023/08/12 05:40:15;;;;;;;2.70;2.50;;;;;;;23.50;57.95;99917.13;5091641;28;20198;-69
2023/08/12 05:42:42;;;;;;;3.67;2.60;;;;;;;23.65;57.69;99916.31;5091678;28;20193;-68
2023/08/12 05:45:10;;;;;;;6.63;2.60;;;;;;;23.71;57.05;99918.75;5091972;28;20730;-67
2023/08/12 05:47:38;;;;;;;5.87;2.50;;;;;;;23.67;56.63;99912.25;5092117;28;20732;-67
2023/08/12 05:50:06;;;;;;;3.73;3.07;;;;;;;23.48;57.36;99913.84;5092720;28;20206;-68
2023/08/12 05:52:34;;;;;;;2.93;2.70;;;;;;;23.64;57.35;99912.78;5091575;28;20269;-70
2023/08/12 05:55:00;;;;;;;2.90;2.60;;;;;;;23.73;56.38;99904.94;5092063;28;20195;-67
2023/08/12 05:57:27;;;;;;;4.20;2.40;;;;;;;23.66;56.68;99904.38;5091524;28;20190;-68
2023/08/12 05:59:54;;;;;;;3.37;2.70;;;;;;;23.54;57.02;99899.22;5091922;28;20639;-70
2023/08/12 06:02:20;;;;;;;5.80;2.90;;;;;;;23.43;57.43;99904.88;5088354;28;20198;-66
2023/08/12 06:04:48;;;;;;;5.07;2.97;;;;;;;23.56;58.02;99898.97;5092049;28;20259;-67
2023/08/12 06:07:15;;;;;;;3.43;3.03;;;;;;;23.82;57.01;99898.69;5091672;28;20729;-66
2023/08/12 06:09:42;;;;;;;4.73;2.63;;;;;;;23.99;56.90;99891.09;5090732;28;20738;-67
2023/08/12 06:12:08;;;;;;;8.87;2.63;;;;;;;24.31;55.61;99897.03;5090750;28;20293;-68
2023/08/12 06:14:38;;;;;;;2.83;2.40;;;;;;;24.29;55.92;99887.50;5091642;28;20666;-67
2023/08/12 06:17:05;;;;;;;9.20;3.07;;;;;;;24.45;55.30;99886.38;5092086;28;20199;-75
2023/08/12 06:19:32;;;;;;;10.03;3.00;;;;;;;24.88;53.80;99886.47;5091342;28;20968;-76
2023/08/12 06:22:00;;;;;;;4.73;2.27;;;;;;;25.18;53.23;99892.88;5090755;28;20195;-76
2023/08/12 06:24:27;;;;;;;5.40;2.90;;;;;;;25.33;51.95;99893.63;5091554;28;20248;-74
2023/08/12 06:26:53;;;;;;;2.90;2.60;;;;;;;25.29;53.16;99891.72;5091798;28;20267;-70
2023/08/12 06:29:20;;;;;;;6.13;3.17;;;;;;;25.28;52.67;99884.66;5090612;28;20195;-77
2023/08/12 06:31:47;;;;;;;6.63;2.70;;;;;;;25.31;52.00;99895.00;5091347;28;20614;-77
2023/08/12 06:34:14;;;;;;;4.10;2.70;;;;;;;25.53;52.44;99887.22;5091590;28;20234;-72
2023/08/12 06:36:40;;;;;;;4.37;2.57;;;;;;;25.87;50.65;99883.38;5091758;28;20191;-72
2023/08/12 06:39:08;;;;;;;6.87;2.90;;;;;;;26.27;49.48;99887.66;5091254;28;20206;-73
2023/08/12 06:41:35;;;;;;;5.37;2.50;;;;;;;26.50;48.81;99892.31;5091137;28;20252;-72
2023/08/12 06:44:04;;;;;;;5.10;2.80;;;;;;;26.78;47.72;99894.19;5091179;28;20659;-70
2023/08/12 06:46:30;;;;;;;33.20;5.23;;;;;;;26.96;47.57;99898.84;5091526;28;20195;-71
2023/08/12 06:48:57;;;;;;;4.37;2.77;;;;;;;27.49;45.21;99905.75;5091274;28;20219;-70
2023/08/12 06:51:24;;;;;;;6.00;2.70;;;;;;;28.04;44.25;99899.38;5091067;28;20670;-69
2023/08/12 06:53:50;;;;;;;5.37;3.13;;;;;;;28.61;41.63;99893.41;5091278;28;20663;-72
2023/08/12 06:56:19;;;;;;;5.77;2.67;;;;;;;29.04;41.73;99894.72;5091688;28;20575;-72
2023/08/12 06:58:45;;;;;;;3.70;2.50;;;;;;;29.40;39.60;99892.78;5090493;28;20355;-74
2023/08/12 07:01:12;;;;;;;6.30;2.90;;;;;;;29.84;38.57;99898.28;5090936;28;20195;-79
2023/08/12 07:03:38;;;;;;;2.60;2.33;;;;;;;29.83;37.85;99885.72;5091527;28;20623;-74
2023/08/12 07:06:05;;;;;;;2.50;2.30;;;;;;;29.75;36.59;99889.22;5090689;28;20199;-73
2023/08/12 07:08:32;;;;;;;4.60;2.30;;;;;;;30.21;37.63;99892.41;5090739;28;20663;-76
2023/08/12 07:10:59;;;;;;;2.70;2.40;;;;;;;30.53;36.40;99885.78;5090765;28;20195;-73
2023/08/12 07:13:27;;;;;;;2.43;2.30;;;;;;;30.69;34.95;99886.97;5090808;28;20203;-74
2023/08/12 07:15:53;;;;;;;5.83;2.10;;;;;;;30.99;34.76;99891.59;5071165;28;20238;-71
2023/08/12 07:18:20;;;;;;;11.87;2.57;;;;;;;31.26;34.19;99886.66;5086908;28;20227;-68
2023/08/12 07:20:47;;;;;;;9.77;2.50;;;;;;;31.55;33.52;99886.81;5091273;28;20199;-68
2023/08/12 07:23:13;;;;;;;10.60;3.37;;;;;;;31.40;32.30;99881.78;5086392;28;20192;-68
2023/08/12 07:25:40;;;;;;;11.63;3.67;;;;;;;31.38;33.57;99886.81;5083192;28;20249;-67
2023/08/12 07:28:07;;;;;;;3.10;2.50;;;;;;;31.75;32.45;99888.06;5088416;28;20615;-68
2023/08/12 07:30:36;;;;;;;3.13;2.60;;;;;;;32.06;31.80;99889.47;5094617;28;20248;-72
2023/08/12 07:33:03;;;;;;;2.50;2.20;;;;;;;32.01;31.21;99886.91;5077096;28;20270;-68
2023/08/12 07:35:30;;;;;;;5.40;2.30;;;;;;;31.87;31.19;99880.81;5073921;28;20260;-71
2023/08/12 07:37:56;;;;;;;4.30;2.53;;;;;;;31.90;32.07;99876.59;5084365;28;20249;-73
2023/08/12 07:40:23;;;;;;;2.53;2.33;;;;;;;32.02;31.97;99883.06;5093582;28;20195;-74
2023/08/12 07:42:50;;;;;;;2.10;2.00;;;;;;;31.94;31.36;99885.81;5094771;28;20202;-73
2023/08/12 07:45:16;;;;;;;3.63;2.47;;;;;;;32.03;31.69;99879.16;5094812;28;20268;-74
2023/08/12 07:47:44;;;;;;;2.30;2.10;;;;;;;31.98;31.16;99876.59;5093900;28;20191;-72
2023/08/12 07:50:11;;;;;;;3.10;2.17;;;;;;;31.84;31.22;99875.97;5093150;28;20191;-72
2023/08/12 07:52:38;;;;;;;2.20;2.10;;;;;;;32.12;31.38;99877.19;5094114;28;20274;-73
2023/08/12 07:55:06;;;;;;;8.00;2.20;;;;;;;32.64;31.01;99869.56;5091910;28;20641;-73
2023/08/12 07:57:32;;;;;;;2.67;2.50;;;;;;;32.86;30.02;99881.09;5090285;28;20194;-73
2023/08/12 07:59:59;;;;;;;3.67;2.17;;;;;;;32.95;30.04;99873.59;5091386;28;20227;-73
2023/08/12 08:02:26;;;;;;;3.78;2.30;;;;;;;33.34;29.00;99875.13;5091919;28;20260;-73
2023/08/12 08:04:54;;;;;;;2.28;1.73;;;;;;;33.11;29.47;99860.84;5090491;28;20252;-72
2023/08/12 08:07:21;;;;;;;4.28;2.10;;;;;;;32.95;29.95;99862.59;5090905;28;20199;-72
2023/08/12 08:09:47;;;;;;;4.07;2.00;;;;;;;33.36;29.22;99861.00;5090895;28;20203;-73
2023/08/12 08:12:14;;;;;;;2.20;2.00;;;;;;;33.80;29.39;99860.28;5092114;28;20195;-72
2023/08/12 08:14:41;;;;;;;2.08;1.98;;;;;;;33.93;28.67;99864.72;5092686;28;20278;-72
2023/08/12 08:17:08;;;;;;;2.45;1.90;;;;;;;34.19;28.57;99862.44;5090645;28;20650;-74
2023/08/12 08:19:34;;;;;;;2.05;1.73;;;;;;;33.98;28.11;99858.97;5092599;28;20309;-72
2023/08/12 08:22:03;;;;;;;2.22;2.10;;;;;;;33.71;28.43;99865.09;5093116;28;20248;-72
2023/08/12 08:24:29;;;;;;;2.30;2.20;;;;;;;33.51;28.75;99852.13;5093708;28;20279;-73
2023/08/12 08:26:56;;;;;;;1.80;1.70;;;;;;;33.76;29.02;99853.84;5092691;28;20191;-73
2023/08/12 08:29:24;;;;;;;1.95;1.83;;;;;;;34.09;28.12;99857.38;5093519;28;20195;-73
2023/08/12 08:31:51;;;;;;;1.85;1.75;;;;;;;33.82;27.18;99852.50;5093025;28;20667;-72
2023/08/12 08:34:17;;;;;;;2.78;2.20;;;;;;;33.81;27.97;99850.84;5093109;28;20244;-73
2023/08/12 08:36:44;;;;;;;1.98;1.77;;;;;;;33.94;28.23;99852.53;5092312;28;20219;-73
2023/08/12 08:39:13;;;;;;;1.80;1.65;;;;;;;32.90;28.01;99849.03;5092976;28;20225;-72
2023/08/12 08:41:41;;;;;;;1.88;1.77;;;;;;;33.15;27.78;99849.97;5092958;28;20331;-72
2023/08/12 08:44:09;;;;;;;3.60;1.90;;;;;;;33.61;28.08;99846.19;5092986;28;20252;-74
2023/08/12 08:46:36;;;;;;;2.35;2.25;;;;;;;33.36;28.49;99838.97;5092380;28;20199;-73
2023/08/12 08:49:05;;;;;;;1.85;1.58;;;;;;;33.69;27.39;99845.31;5092653;28;20195;-74
2023/08/12 08:51:32;;;;;;;1.98;1.88;;;;;;;33.70;27.85;99844.16;5093000;28;20199;-73
2023/08/12 08:53:59;;;;;;;1.83;1.73;;;;;;;33.89;27.22;99836.19;5092278;28;20248;-73
2023/08/12 08:56:28;;;;;;;2.17;1.88;;;;;;;34.19;27.50;99834.88;5092051;28;20195;-73
2023/08/12 08:58:55;;;;;;;1.70;1.60;;;;;;;34.39;27.28;99834.00;5092730;28;20287;-73
2023/08/12 09:01:22;;;;;;;1.85;1.75;;;;;;;34.45;27.16;99833.41;5092760;28;20187;-73
2023/08/12 09:03:53;;;;;;;5.55;2.10;;;;;;;34.32;26.55;99826.28;5092365;28;20283;-73
2023/08/12 09:06:22;;;;;;;2.33;1.63;;;;;;;34.41;25.32;99823.44;5091801;28;20184;-73
2023/08/12 09:08:52;;;;;;;1.85;1.80;;;;;;;34.35;25.60;99817.34;5092464;28;20749;-73
2023/08/12 09:11:22;;;;;;;2.08;1.90;;;;;;;34.57;25.57;99813.31;5092233;28;20187;-73
2023/08/12 09:13:50;;;;;;;2.50;1.77;;;;;;;34.57;26.06;99807.78;5092610;28;20668;-73
2023/08/12 09:16:17;;;;;;;1.77;1.67;;;;;;;34.71;25.94;99813.72;5091518;28;20221;-73
2023/08/12 09:18:44;;;;;;;2.38;1.60;;;;;;;34.77;25.84;99806.81;5092233;28;20199;-74
2023/08/12 09:21:11;;;;;;;5.03;2.08;;;;;;;34.86;25.62;99807.53;5092712;28;20187;-73
2023/08/12 09:23:39;;;;;;;8.38;1.58;;;;;;;34.80;25.38;99804.22;5092086;28;20188;-73
2023/08/12 09:26:14;;;;;;;2.28;1.65;;;;;;;34.91;25.69;99804.53;5072221;28;20199;-72
2023/08/12 09:28:41;;;;;;;2.28;1.63;;;;;;;34.43;25.25;99796.28;5072328;28;20219;-72
2023/08/12 09:31:22;;;;;;;2.75;1.80;;;;;;;34.38;25.80;99797.34;5071878;28;20192;-74
2023/08/12 09:33:48;;;;;;;2.30;2.20;;;;;;;34.09;25.76;99785.69;5073161;28;20819;-72
2023/08/12 09:36:16;;;;;;;3.38;1.65;;;;;;;33.84;25.62;99790.34;5091420;28;20221;-73
2023/08/12 09:38:43;;;;;;;2.22;2.08;;;;;;;34.07;25.63;99787.97;5092280;28;20723;-73
2023/08/12 09:41:10;;;;;;;3.42;2.40;;;;;;;34.27;25.47;99784.28;5091417;28;20226;-74
2023/08/12 09:43:41;;;;;;;3.47;1.88;;;;;;;34.37;25.14;99787.41;5091849;28;20249;-74
2023/08/12 09:46:12;;;;;;;3.83;2.10;;;;;;;34.46;24.61;99784.56;5090145;28;20179;-73
2023/08/12 09:48:39;;;;;;;2.28;1.70;;;;;;;34.04;25.31;99783.16;5091831;28;20187;-73
2023/08/12 09:51:06;;;;;;;1.80;1.60;;;;;;;34.19;25.24;99790.72;5092539;28;20195;-73
2023/08/12 09:53:33;;;;;;;2.55;2.03;;;;;;;34.50;24.67;99779.94;5091546;28;20576;-73
2023/08/12 09:56:06;;;;;;;1.80;1.70;;;;;;;34.14;25.34;99778.00;5091369;28;20196;-74
2023/08/12 09:58:35;;;;;;;2.10;2.00;;;;;;;33.90;25.46;99782.66;5091699;28;20232;-73
2023/08/12 10:01:03;;;;;;;1.92;1.83;;;;;;;33.54;26.00;99774.28;5091112;28;20272;-73
2023/08/12 10:03:33;;;;;;;1.88;1.77;;;;;;;33.51;25.95;99763.97;5091202;28;20321;-73
2023/08/12 10:06:01;;;;;;;3.65;2.00;;;;;;;33.90;25.72;99758.66;5091216;28;20192;-73
2023/08/12 10:08:28;;;;;;;3.00;1.80;;;;;;;33.93;25.60;99754.41;5091560;28;20290;-73
2023/08/12 10:10:55;;;;;;;2.03;1.92;;;;;;;34.18;25.80;99756.84;5091574;28;20195;-73
2023/08/12 10:13:23;;;;;;;4.05;2.20;;;;;;;34.08;25.70;99754.53;5090708;28;20195;-73
2023/08/12 10:15:50;;;;;;;2.65;1.98;;;;;;;34.08;25.67;99754.53;5091037;28;20274;-73
2023/08/12 10:18:19;;;;;;;2.17;2.08;;;;;;;33.95;25.63;99752.09;5091958;28;20191;-73
2023/08/12 10:20:48;;;;;;;1.92;1.83;;;;;;;34.00;25.93;99743.63;5091696;28;20665;-72
2023/08/12 10:23:18;;;;;;;2.28;2.15;;;;;;;34.11;25.65;99750.28;5090836;28;20191;-73
2023/08/12 10:25:45;;;;;;;3.70;2.38;;;;;;;34.19;25.29;99741.06;5091579;28;20187;-72
2023/08/12 10:28:12;;;;;;;1.90;1.80;;;;;;;34.30;24.99;99748.56;5091346;28;20248;-73
2023/08/12 10:30:41;;;;;;;1.80;1.70;;;;;;;34.57;24.77;99736.03;5091702;28;20267;-73
2023/08/12 10:33:08;;;;;;;3.65;1.80;;;;;;;34.80;24.92;99735.19;5090658;28;20285;-73
2023/08/12 10:35:45;;;;;;;2.30;2.10;;;;;;;34.89;24.60;99737.78;5091398;28;20187;-73
2023/08/12 10:38:15;;;;;;;1.70;1.60;;;;;;;34.94;24.15;99740.31;5091566;28;20266;-73
2023/08/12 10:40:42;;;;;;;2.05;1.63;;;;;;;34.83;23.95;99734.44;5090685;28;20246;-73
2023/08/12 10:43:09;;;;;;;2.45;1.95;;;;;;;34.79;24.32;99738.25;5091332;28;20631;-73
2023/08/12 10:45:43;;;;;;;1.77;1.67;;;;;;;34.79;24.43;99733.53;5090830;28;20202;-73
2023/08/12 10:48:17;;;;;;;3.30;2.10;;;;;;;34.78;24.15;99733.91;5090945;28;20190;-73
2023/08/12 10:53:34;;;;;;;2.42;1.75;;;;;;;34.54;24.61;99722.91;5087589;28;20570;-74
2023/08/12 10:56:06;;;;;;;1.80;1.70;;;;;;;34.70;24.37;99712.75;5090920;28;20616;-72
2023/08/12 10:58:35;;;;;;;4.78;1.80;;;;;;;34.69;24.99;99691.78;5091409;28;20191;-73
2023/08/12 11:01:03;;;;;;;2.22;2.03;;;;;;;34.41;24.67;99711.06;5094697;28;20218;-73
2023/08/12 11:03:33;;;;;;;2.00;1.80;;;;;;;34.32;25.05;99695.81;5094657;28;20536;-74
2023/08/12 11:06:01;;;;;;;1.77;1.67;;;;;;;34.53;24.41;99697.25;5095068;28;20433;-73
2023/08/12 11:08:29;;;;;;;2.05;1.95;;;;;;;34.22;24.69;99712.81;5095242;28;20194;-73
2023/08/12 11:10:58;;;;;;;3.70;1.88;;;;;;;33.80;24.74;99695.66;5094092;28;20199;-73
2023/08/12 11:13:28;;;;;;;2.28;1.60;;;;;;;33.73;25.02;99695.44;5095309;28;20223;-72
2023/08/12 11:16:07;;;;;;;1.77;1.67;;;;;;;33.76;24.99;99694.75;5095147;28;20237;-73
2023/08/12 11:18:34;;;;;;;2.15;1.85;;;;;;;34.05;24.90;99691.00;5094453;28;20210;-72
2023/08/12 11:21:01;;;;;;;2.00;1.60;;;;;;;33.75;25.17;99684.06;5093717;28;20215;-72
2023/08/12 11:23:29;;;;;;;2.20;2.00;;;;;;;33.76;25.19;99680.19;5094704;28;20191;-72
2023/08/12 11:25:59;;;;;;;1.75;1.65;;;;;;;33.25;25.61;99676.88;5094522;28;20195;-74
2023/08/12 11:28:25;;;;;;;1.98;1.88;;;;;;;33.25;26.11;99674.09;5094502;28;20275;-73
2023/08/12 11:30:52;;;;;;;2.00;1.90;;;;;;;33.56;25.59;99684.63;5093541;28;20225;-73
2023/08/12 11:33:20;;;;;;;2.53;1.90;;;;;;;33.86;25.27;99677.78;5094411;28;20278;-73
2023/08/12 11:35:47;;;;;;;1.95;1.85;;;;;;;34.18;25.12;99676.03;5094687;28;20286;-72
2023/08/12 11:38:16;;;;;;;1.90;1.80;;;;;;;33.58;25.55;99673.25;5094620;28;20343;-72